createdAt,value
2023-04-14T00:02:11.745Z,7.77
2023-04-14T00:04:38.400Z,7.90
2023-04-14T00:07:05.392Z,7.50
2023-04-14T00:09:31.936Z,7.10
2023-04-14T00:11:58.556Z,7.13
2023-04-14T00:14:25.363Z,7.30
2023-04-14T00:16:51.911Z,7.13
2023-04-14T00:19:18.452Z,8.17
2023-04-14T00:21:45.266Z,7.30
2023-04-14T00:24:11.745Z,7.63
2023-04-14T00:26:38.501Z,7.10
2023-04-14T00:29:05.529Z,7.20
2023-04-14T00:31:32.211Z,6.90
2023-04-14T00:33:58.722Z,7.70
2023-04-14T00:36:25.186Z,7.30
2023-04-14T00:38:51.655Z,7.77
2023-04-14T00:41:18.272Z,6.70
2023-04-14T00:43:44.732Z,6.90
2023-04-14T00:46:11.596Z,6.83
2023-04-14T00:48:38.177Z,6.90
2023-04-14T00:51:05.187Z,6.60
2023-04-14T00:53:32.776Z,6.43
2023-04-14T00:55:59.399Z,6.97
2023-04-14T00:58:26.295Z,6.30
2023-04-14T01:00:55.593Z,7.07
2023-04-14T01:03:24.466Z,6.23
2023-04-14T01:05:51.381Z,6.37
2023-04-14T01:08:18.721Z,6.73
2023-04-14T01:10:58.707Z,6.27
2023-04-14T01:13:33.699Z,6.63
2023-04-14T01:16:04.642Z,6.27
2023-04-14T01:19:01.412Z,6.13
2023-04-14T01:21:33.119Z,6.67
2023-04-14T01:24:21.036Z,6.37
2023-04-14T01:26:48.113Z,6.87
2023-04-14T01:29:34.831Z,6.70
2023-04-14T01:32:20.488Z,6.77
2023-04-14T01:35:05.825Z,6.57
2023-04-14T01:37:35.603Z,7.17
2023-04-14T01:40:07.792Z,7.00
2023-04-14T01:42:36.203Z,7.33
2023-04-14T01:45:09.028Z,6.50
2023-04-14T01:47:35.713Z,7.50
2023-04-14T01:50:05.206Z,7.10
2023-04-14T01:52:32.738Z,8.17
2023-04-14T01:55:00.063Z,7.00
2023-04-14T01:57:27.280Z,7.23
2023-04-14T01:59:55.378Z,7.00
2023-04-14T02:02:22.658Z,6.60
2023-04-14T02:04:50.229Z,6.87
2023-04-14T02:07:17.647Z,6.40
2023-04-14T02:09:45.337Z,7.00
2023-04-14T02:12:12.746Z,7.30
2023-04-14T02:14:41.759Z,7.20
2023-04-14T02:17:10.258Z,6.63
2023-04-14T02:19:37.107Z,6.23
2023-04-14T02:22:04.519Z,6.63
2023-04-14T02:24:31.252Z,7.40
2023-04-14T02:27:01.327Z,8.00
2023-04-14T02:29:28.750Z,9.70
2023-04-14T02:31:59.947Z,9.93
2023-04-14T02:34:30.826Z,9.10
2023-04-14T02:36:58.136Z,9.90
2023-04-14T02:39:33.086Z,10.10
2023-04-14T02:42:08.354Z,11.07
2023-04-14T02:44:39.197Z,9.87
2023-04-14T02:47:08.845Z,11.00
2023-04-14T02:49:37.344Z,12.20
2023-04-14T02:52:10.717Z,10.67
2023-04-14T02:54:39.295Z,10.53
2023-04-14T02:57:06.042Z,11.30
2023-04-14T02:59:32.783Z,11.60
2023-04-14T03:02:03.296Z,11.77
2023-04-14T03:04:34.634Z,13.10
2023-04-14T03:07:03.085Z,13.23
2023-04-14T03:09:31.305Z,13.53
2023-04-14T03:11:58.642Z,13.57
2023-04-14T03:14:26.218Z,12.37
2023-04-14T03:16:53.807Z,13.50
2023-04-14T03:19:22.410Z,13.87
2023-04-14T03:21:50.576Z,13.60
2023-04-14T03:24:24.326Z,14.40
2023-04-14T03:26:52.504Z,14.37
2023-04-14T03:29:20.969Z,14.07
2023-04-14T03:31:48.167Z,14.30
2023-04-14T03:34:15.680Z,13.77
2023-04-14T03:36:42.807Z,13.83
2023-04-14T03:39:11.802Z,14.30
2023-04-14T03:41:39.666Z,14.10
2023-04-14T03:44:06.717Z,13.43
2023-04-14T03:46:33.332Z,13.50
2023-04-14T03:49:01.744Z,14.10
2023-04-14T03:51:29.224Z,14.60
2023-04-14T03:53:58.145Z,13.90
2023-04-14T03:56:26.024Z,14.70
2023-04-14T03:58:55.174Z,13.73
2023-04-14T04:01:25.874Z,14.67
2023-04-14T04:03:54.205Z,14.37
2023-04-14T04:06:21.134Z,13.50
2023-04-14T04:08:48.997Z,13.80
2023-04-14T04:11:19.014Z,14.70
2023-04-14T04:13:47.746Z,14.33
2023-04-14T04:16:14.750Z,15.17
2023-04-14T04:18:46.671Z,15.57
2023-04-14T04:21:14.973Z,16.30
2023-04-14T04:23:42.502Z,16.53
2023-04-14T04:26:09.240Z,17.57
2023-04-14T04:28:36.694Z,18.07
2023-04-14T04:31:05.244Z,17.93
2023-04-14T04:33:32.636Z,18.40
2023-04-14T04:36:00.016Z,17.97
2023-04-14T04:38:26.955Z,20.00
2023-04-14T04:40:53.424Z,18.87
2023-04-14T04:43:20.072Z,18.63
2023-04-14T04:45:58.930Z,19.13
2023-04-14T04:48:25.724Z,19.27
2023-04-14T04:50:52.195Z,20.13
2023-04-14T04:53:18.782Z,20.47
2023-04-14T04:55:45.339Z,20.40
2023-04-14T04:58:11.931Z,22.13
2023-04-14T05:00:38.887Z,20.13
2023-04-14T05:03:05.557Z,21.33
2023-04-14T05:05:36.442Z,20.03
2023-04-14T05:08:04.523Z,19.83
2023-04-14T05:10:31.116Z,17.93
2023-04-14T05:12:57.675Z,18.67
2023-04-14T05:15:24.320Z,19.10
2023-04-14T05:17:51.265Z,19.90
2023-04-14T05:20:17.963Z,18.63
2023-04-14T05:22:44.467Z,19.70
2023-04-14T05:25:11.202Z,18.93
2023-04-14T05:27:37.733Z,17.60
2023-04-14T05:30:05.275Z,19.10
2023-04-14T05:32:31.912Z,20.50
2023-04-14T05:34:58.582Z,20.67
2023-04-14T05:37:25.538Z,20.03
2023-04-14T05:39:52.172Z,19.07
2023-04-14T05:42:18.647Z,19.87
2023-04-14T05:44:45.312Z,20.93
2023-04-14T05:47:11.824Z,18.83
2023-04-14T05:49:38.461Z,20.97
2023-04-14T05:52:05.477Z,21.13
2023-04-14T05:54:32.095Z,20.57
2023-04-14T05:56:58.782Z,19.47
2023-04-14T05:59:25.782Z,20.60
2023-04-14T06:01:52.526Z,21.47
2023-04-14T06:04:19.195Z,19.57
2023-04-14T06:06:46.052Z,18.73
2023-04-14T06:09:12.612Z,19.40
2023-04-14T06:11:39.798Z,17.73
2023-04-14T06:14:07.561Z,16.87
2023-04-14T06:16:34.422Z,16.90
2023-04-14T06:19:01.502Z,16.40
2023-04-14T06:21:28.643Z,15.97
2023-04-14T06:23:55.552Z,15.47
2023-04-14T06:26:22.638Z,14.97
2023-04-14T06:28:49.301Z,15.20
2023-04-14T06:31:17.368Z,15.13
2023-04-14T06:33:46.190Z,12.17
2023-04-14T06:36:13.970Z,12.90
2023-04-14T06:38:40.651Z,12.67
2023-04-14T06:41:07.587Z,13.07
2023-04-14T06:43:34.183Z,12.93
2023-04-14T06:46:01.053Z,11.77
2023-04-14T06:48:28.096Z,11.07
2023-04-14T06:50:56.097Z,10.77
2023-04-14T06:53:23.402Z,12.03
2023-04-14T06:55:59.393Z,11.03
2023-04-14T06:58:30.414Z,10.60
2023-04-14T07:01:01.500Z,10.77
2023-04-14T07:03:30.500Z,10.47
2023-04-14T07:06:09.294Z,9.50
2023-04-14T07:08:36.609Z,10.43
2023-04-14T07:11:06.168Z,10.43
2023-04-14T07:13:33.834Z,9.90
2023-04-14T07:16:03.802Z,8.13
2023-04-14T07:18:31.893Z,8.57
2023-04-14T07:20:59.926Z,8.13
2023-04-14T07:23:27.337Z,8.30
2023-04-14T07:25:55.097Z,7.20
2023-04-14T07:28:23.112Z,7.83
2023-04-14T07:30:50.716Z,8.10
2023-04-14T07:33:19.059Z,7.80
2023-04-14T07:36:01.385Z,7.73
2023-04-14T07:38:29.734Z,7.20
2023-04-14T07:40:56.495Z,6.67
2023-04-14T07:43:23.991Z,6.87
2023-04-14T07:45:52.523Z,7.00
2023-04-14T07:48:21.307Z,6.60
2023-04-14T07:50:49.882Z,6.07
2023-04-14T07:53:16.566Z,6.40
2023-04-14T07:55:43.250Z,6.27
2023-04-14T07:58:15.119Z,6.37
2023-04-14T08:00:42.605Z,6.07
2023-04-14T08:03:10.099Z,6.53
2023-04-14T08:05:37.003Z,5.70
2023-04-14T08:08:05.116Z,5.97
2023-04-14T08:10:31.995Z,6.13
2023-04-14T08:12:58.965Z,5.93
2023-04-14T08:15:26.590Z,6.20
2023-04-14T08:17:54.542Z,5.57
2023-04-14T08:20:21.196Z,5.47
2023-04-14T08:22:48.311Z,6.47
2023-04-14T08:25:15.252Z,5.90
2023-04-14T08:27:41.793Z,5.37
2023-04-14T08:30:10.248Z,5.67
2023-04-14T08:32:38.267Z,6.37
2023-04-14T08:35:39.343Z,5.83
2023-04-14T08:37:52.324Z,5.90
2023-04-14T08:40:19.443Z,5.80
2023-04-14T08:42:46.314Z,5.70
2023-04-14T08:45:13.239Z,5.50
2023-04-14T08:47:41.042Z,5.20
2023-04-14T08:50:13.431Z,5.30
2023-04-14T08:52:40.856Z,5.47
2023-04-14T08:55:08.348Z,5.37
2023-04-14T08:57:35.214Z,5.37
2023-04-14T09:00:05.237Z,5.23
2023-04-14T09:02:35.283Z,5.43
2023-04-14T09:05:03.627Z,5.13
2023-04-14T09:07:30.597Z,5.57
2023-04-14T09:09:57.751Z,5.37
2023-04-14T09:12:26.115Z,5.33
2023-04-14T09:14:53.705Z,5.77
2023-04-14T09:17:20.526Z,5.10
2023-04-14T09:20:35.877Z,5.00
2023-04-14T09:22:34.952Z,5.10
2023-04-14T09:25:03.633Z,5.07
2023-04-14T09:27:30.641Z,5.10
2023-04-14T09:29:58.668Z,5.70
2023-04-14T09:32:26.280Z,5.10
2023-04-14T09:34:55.633Z,5.50
2023-04-14T09:37:24.370Z,5.20
2023-04-14T09:39:52.280Z,5.30
2023-04-14T09:42:19.226Z,4.87
2023-04-14T09:44:56.392Z,5.43
2023-04-14T09:47:25.293Z,5.07
2023-04-14T09:49:57.741Z,4.97
2023-04-14T09:52:40.057Z,5.03
2023-04-14T09:55:09.987Z,4.83
2023-04-14T09:57:37.450Z,4.43
2023-04-14T10:00:24.677Z,4.97
2023-04-14T10:02:56.560Z,5.50
2023-04-14T10:05:33.821Z,4.83
2023-04-14T10:08:05.445Z,5.60
2023-04-14T10:10:32.746Z,4.87
2023-04-14T10:13:00.580Z,4.90
2023-04-14T10:15:27.385Z,4.77
2023-04-14T10:17:54.257Z,4.97
2023-04-14T10:20:21.095Z,5.13
2023-04-14T10:22:47.985Z,5.10
2023-04-14T10:25:14.804Z,5.43
2023-04-14T10:27:41.591Z,5.40
2023-04-14T10:30:09.031Z,5.30
2023-04-14T10:32:37.564Z,4.93
2023-04-14T10:35:08.957Z,5.13
2023-04-14T10:37:36.063Z,5.20
2023-04-14T10:40:08.358Z,5.20
2023-04-14T10:42:57.266Z,5.53
2023-04-14T10:45:24.031Z,5.43
2023-04-14T10:47:51.253Z,5.30
2023-04-14T10:50:19.217Z,4.90
2023-04-14T10:52:50.744Z,5.80
2023-04-14T10:55:17.952Z,5.83
2023-04-14T10:57:45.988Z,5.40
2023-04-14T11:00:25.448Z,5.23
2023-04-14T11:03:10.537Z,5.30
2023-04-14T11:05:43.358Z,5.43
2023-04-14T11:08:14.903Z,5.13
2023-04-14T11:10:48.101Z,5.10
2023-04-14T11:13:17.543Z,5.50
2023-04-14T11:16:05.985Z,5.30
2023-04-14T11:18:45.232Z,5.00
2023-04-14T11:21:14.537Z,4.80
2023-04-14T11:23:41.820Z,4.97
2023-04-14T11:26:09.876Z,4.70
2023-04-14T11:28:38.189Z,4.73
2023-04-14T11:31:06.488Z,4.90
2023-04-14T11:33:36.741Z,4.93
2023-04-14T11:36:05.888Z,4.23
2023-04-14T11:38:35.729Z,5.00
2023-04-14T11:41:03.545Z,4.43
2023-04-14T11:43:32.983Z,4.50
2023-04-14T11:46:04.130Z,4.10
2023-04-14T11:48:31.062Z,3.37
2023-04-14T11:51:04.759Z,3.43
2023-04-14T11:53:32.326Z,3.30
2023-04-14T11:56:00.519Z,3.40
2023-04-14T11:58:27.748Z,3.00
2023-04-14T12:00:56.234Z,3.80
2023-04-14T12:03:30.656Z,3.20
2023-04-14T12:06:00.829Z,3.40
2023-04-14T12:08:30.693Z,3.73
2023-04-14T12:10:57.840Z,3.60
2023-04-14T12:13:24.766Z,3.60
2023-04-14T12:15:52.804Z,3.73
2023-04-14T12:20:47.810Z,3.83
2023-04-14T12:23:15.678Z,3.33
2023-04-14T12:25:42.269Z,3.30
2023-04-14T12:28:09.050Z,2.57
2023-04-14T12:30:36.912Z,3.07
2023-04-14T12:33:10.217Z,3.10
2023-04-14T12:35:37.477Z,2.53
2023-04-14T12:38:14.592Z,3.07
2023-04-14T12:40:43.924Z,2.53
2023-04-14T12:43:10.810Z,3.10
2023-04-14T12:45:47.391Z,2.83
2023-04-14T12:48:15.934Z,2.93
2023-04-14T12:50:45.437Z,2.73
2023-04-14T12:53:29.374Z,2.53
2023-04-14T12:56:06.962Z,2.17
2023-04-14T12:58:37.990Z,2.03
2023-04-14T13:01:08.118Z,1.90
2023-04-14T13:03:46.311Z,1.83
2023-04-14T13:06:18.002Z,1.80
2023-04-14T13:08:46.258Z,1.97
2023-04-14T13:11:17.109Z,1.80
2023-04-14T13:13:46.532Z,1.87
2023-04-14T13:16:16.775Z,1.87
2023-04-14T13:18:45.283Z,2.17
2023-04-14T13:21:11.892Z,2.60
2023-04-14T13:23:38.801Z,2.50
2023-04-14T13:26:06.386Z,2.70
2023-04-14T13:28:33.071Z,3.20
2023-04-14T13:30:59.670Z,2.47
2023-04-14T13:33:27.568Z,2.57
2023-04-14T13:35:55.709Z,2.80
2023-04-14T13:38:24.556Z,2.53
2023-04-14T13:40:51.124Z,2.63
2023-04-14T13:43:18.931Z,2.70
2023-04-14T13:45:46.317Z,2.73
2023-04-14T13:48:13.715Z,2.90
2023-04-14T13:50:40.357Z,3.00
2023-04-14T13:53:07.077Z,3.23
2023-04-14T13:55:34.868Z,2.80
2023-04-14T13:58:01.624Z,2.57
2023-04-14T14:00:28.322Z,2.43
2023-04-14T14:02:55.038Z,2.50
2023-04-14T14:05:21.874Z,2.33
2023-04-14T14:07:48.682Z,2.50
2023-04-14T14:10:15.264Z,2.37
2023-04-14T14:12:42.328Z,2.43
2023-04-14T14:15:09.622Z,2.00
2023-04-14T14:17:37.393Z,2.17
2023-04-14T14:20:06.402Z,2.50
2023-04-14T14:22:33.066Z,2.30
2023-04-14T14:25:15.305Z,2.57
2023-04-14T14:27:45.772Z,2.47
2023-04-14T14:30:12.914Z,2.40
2023-04-14T14:32:39.600Z,2.63
2023-04-14T14:35:06.672Z,2.33
2023-04-14T14:37:33.178Z,2.10
2023-04-14T14:39:59.859Z,2.03
2023-04-14T14:42:27.033Z,2.20
2023-04-14T14:44:54.270Z,2.87
2023-04-14T14:47:21.141Z,2.37
2023-04-14T14:49:58.914Z,2.70
2023-04-14T14:52:34.239Z,2.43
2023-04-14T14:55:01.514Z,2.53
2023-04-14T14:57:32.410Z,2.37
2023-04-14T14:59:59.100Z,2.40
2023-04-14T15:02:26.251Z,2.73
2023-04-14T15:04:54.089Z,2.47
2023-04-14T15:07:20.906Z,2.37
2023-04-14T15:09:47.930Z,2.87
2023-04-14T15:12:14.676Z,2.83
2023-04-14T15:14:41.348Z,2.50
2023-04-14T15:17:08.297Z,2.50
2023-04-14T15:19:35.001Z,3.13
2023-04-14T15:22:01.784Z,3.07
2023-04-14T15:24:28.494Z,2.73
2023-04-14T15:26:55.119Z,2.33
2023-04-14T15:29:25.077Z,2.63
2023-04-14T15:31:52.047Z,2.50
2023-04-14T15:34:18.835Z,2.80
2023-04-14T15:36:45.938Z,3.50
2023-04-14T15:39:12.615Z,3.30
2023-04-14T15:41:39.099Z,3.90
2023-04-14T15:44:05.940Z,3.90
2023-04-14T15:46:32.773Z,3.80
2023-04-14T15:48:59.586Z,3.80
2023-04-14T15:51:26.263Z,3.77
2023-04-14T15:53:52.835Z,4.00
2023-04-14T15:56:23.006Z,3.57
2023-04-14T15:58:49.912Z,4.07
2023-04-14T16:01:16.663Z,3.37
2023-04-14T16:03:43.449Z,3.53
2023-04-14T16:06:10.164Z,3.73
2023-04-14T16:08:37.217Z,3.80
2023-04-14T16:11:04.942Z,3.70
2023-04-14T16:13:31.646Z,4.40
2023-04-14T16:15:58.614Z,4.10
2023-04-14T16:18:25.244Z,3.93
2023-04-14T16:20:51.960Z,4.30
2023-04-14T16:23:18.697Z,4.40
2023-04-14T16:25:51.182Z,3.93
2023-04-14T16:28:18.243Z,4.20
2023-04-14T16:30:45.862Z,3.87
2023-04-14T16:33:12.568Z,4.60
2023-04-14T16:35:39.267Z,4.23
2023-04-14T16:38:08.506Z,4.33
2023-04-14T16:40:36.656Z,3.67
2023-04-14T16:43:04.585Z,4.20
2023-04-14T16:45:32.173Z,3.37
2023-04-14T16:47:59.078Z,3.13
2023-04-14T16:50:25.763Z,3.60
2023-04-14T16:52:52.561Z,3.90
2023-04-14T16:55:19.115Z,3.80
2023-04-14T16:57:45.926Z,4.37
2023-04-14T17:00:13.794Z,3.50
2023-04-14T17:02:41.277Z,3.80
2023-04-14T17:05:10.721Z,3.50
2023-04-14T17:07:37.733Z,3.67
2023-04-14T17:10:05.959Z,3.50
2023-04-14T17:12:32.881Z,3.63
2023-04-14T17:15:00.976Z,3.77
2023-04-14T17:17:28.427Z,3.90
2023-04-14T17:19:56.817Z,4.07
2023-04-14T17:22:24.726Z,4.47
2023-04-14T17:24:52.130Z,4.50
2023-04-14T17:27:20.123Z,3.87
2023-04-14T17:29:47.537Z,3.80
2023-04-14T17:32:14.339Z,4.50
2023-04-14T17:34:41.134Z,3.73
2023-04-14T17:37:07.924Z,4.60
2023-04-14T17:39:34.538Z,4.13
2023-04-14T17:42:01.628Z,4.97
2023-04-14T17:44:33.452Z,4.53
2023-04-14T17:47:12.692Z,4.43
2023-04-14T17:49:39.212Z,4.83
2023-04-14T17:52:07.036Z,4.83
2023-04-14T17:54:33.782Z,4.70
2023-04-14T17:57:00.458Z,4.87
2023-04-14T17:59:27.457Z,5.63
2023-04-14T18:01:54.230Z,6.17
2023-04-14T18:04:21.377Z,5.63
2023-04-14T18:06:48.033Z,5.33
2023-04-14T18:09:14.677Z,6.20
2023-04-14T18:11:41.488Z,5.77
2023-04-14T18:14:08.545Z,5.03
2023-04-14T18:16:35.080Z,5.30
2023-04-14T18:19:02.220Z,5.53
2023-04-14T18:21:29.657Z,5.47
2023-04-14T18:26:27.339Z,6.37
2023-04-14T18:28:54.314Z,6.63
2023-04-14T18:31:21.027Z,6.37
2023-04-14T18:33:47.897Z,6.27
2023-04-14T18:36:14.584Z,6.70
2023-04-14T18:38:41.160Z,6.17
2023-04-14T18:41:08.301Z,6.57
2023-04-14T18:43:34.884Z,6.20
2023-04-14T18:46:01.620Z,5.70
2023-04-14T18:48:28.847Z,6.00
2023-04-14T18:51:01.736Z,6.67
2023-04-14T18:53:28.737Z,6.87
2023-04-14T18:55:55.681Z,6.00
2023-04-14T18:58:22.879Z,6.27
2023-04-14T19:00:49.771Z,5.83
2023-04-14T19:03:16.950Z,6.50
2023-04-14T19:05:43.972Z,6.87
2023-04-14T19:08:10.856Z,6.47
2023-04-14T19:10:38.521Z,6.33
2023-04-14T19:13:05.782Z,6.17
2023-04-14T19:15:32.350Z,6.70
2023-04-14T19:17:59.165Z,6.33
2023-04-14T19:20:26.738Z,6.63
2023-04-14T19:22:53.756Z,6.33
2023-04-14T19:25:20.489Z,6.77
2023-04-14T19:27:47.022Z,6.30
2023-04-14T19:30:13.935Z,6.07
2023-04-14T19:32:41.507Z,6.30
2023-04-14T19:35:08.862Z,6.27
2023-04-14T19:37:36.052Z,6.43
2023-04-14T19:40:06.429Z,6.63
2023-04-14T19:42:33.406Z,5.93
2023-04-14T19:45:00.547Z,6.23
2023-04-14T19:47:27.721Z,6.27
2023-04-14T19:49:55.047Z,7.27
2023-04-14T19:52:22.381Z,5.93
2023-04-14T19:54:49.523Z,6.03
2023-04-14T19:57:16.740Z,5.80
2023-04-14T19:59:44.259Z,6.23
2023-04-14T20:02:13.051Z,6.73
2023-04-14T20:04:39.908Z,6.43
2023-04-14T20:07:06.515Z,6.87
2023-04-14T20:09:33.535Z,6.37
2023-04-14T20:12:02.550Z,6.83
2023-04-14T20:14:30.202Z,6.50
2023-04-14T20:16:57.175Z,6.80
2023-04-14T20:19:24.508Z,6.73
2023-04-14T20:21:51.247Z,6.67
2023-04-14T20:24:18.016Z,6.57
2023-04-14T20:26:45.099Z,6.87
2023-04-14T20:29:12.150Z,6.57
2023-04-14T20:31:39.797Z,6.37
2023-04-14T20:34:06.454Z,6.97
2023-04-14T20:36:35.984Z,7.17
2023-04-14T20:39:05.705Z,6.90
2023-04-14T20:41:33.886Z,6.97
2023-04-14T20:44:01.428Z,6.47
2023-04-14T20:46:28.900Z,6.77
2023-04-14T20:48:56.736Z,6.87
2023-04-14T20:51:23.770Z,6.57
2023-04-14T20:53:50.952Z,6.97
2023-04-14T20:56:17.882Z,6.50
2023-04-14T20:58:45.796Z,6.73
2023-04-14T21:01:12.736Z,7.23
2023-04-14T21:03:39.892Z,6.27
2023-04-14T21:06:06.797Z,6.40
2023-04-14T21:08:33.513Z,6.97
2023-04-14T21:11:14.802Z,6.90
2023-04-14T21:15:26.846Z,6.97
2023-04-14T21:16:30.832Z,7.07
2023-04-14T21:18:57.637Z,7.40
2023-04-14T21:21:24.307Z,7.27
2023-04-14T21:23:51.303Z,6.97
2023-04-14T21:26:17.997Z,6.47
2023-04-14T21:28:44.536Z,6.90
2023-04-14T21:31:11.386Z,7.07
2023-04-14T21:33:39.725Z,6.90
2023-04-14T21:36:07.037Z,7.00
2023-04-14T21:38:33.610Z,7.20
2023-04-14T21:41:00.272Z,6.47
2023-04-14T21:43:26.774Z,7.03
2023-04-14T21:45:53.998Z,7.17
2023-04-14T21:48:20.792Z,7.07
2023-04-14T21:50:47.449Z,7.40
2023-04-14T21:53:14.193Z,7.13
2023-04-14T21:55:41.117Z,7.27
2023-04-14T21:58:07.677Z,7.23
2023-04-14T22:00:34.689Z,6.87
2023-04-14T22:03:03.295Z,7.50
2023-04-14T22:05:29.948Z,7.30
2023-04-14T22:07:56.591Z,7.60
2023-04-14T22:10:23.545Z,7.23
2023-04-14T22:12:50.848Z,7.13
2023-04-14T22:15:17.501Z,7.17
2023-04-14T22:17:44.952Z,7.20
2023-04-14T22:20:12.069Z,6.70
2023-04-14T22:22:38.611Z,6.30
2023-04-14T22:25:05.602Z,7.50
2023-04-14T22:27:33.859Z,7.30
2023-04-14T22:30:01.428Z,6.97
2023-04-14T22:32:28.104Z,7.20
2023-04-14T22:34:54.750Z,7.53
2023-04-14T22:37:21.473Z,6.90
2023-04-14T22:39:47.909Z,6.63
2023-04-14T22:42:14.504Z,6.73
2023-04-14T22:44:41.192Z,6.70
2023-04-14T22:47:07.700Z,7.40
2023-04-14T22:49:34.194Z,6.83
2023-04-14T22:52:00.851Z,6.87
2023-04-14T22:54:27.587Z,6.40
2023-04-14T22:56:54.086Z,6.40
2023-04-14T22:59:20.685Z,6.73
2023-04-14T23:01:48.454Z,6.37
2023-04-14T23:04:15.272Z,7.27
2023-04-14T23:06:41.936Z,6.40
2023-04-14T23:09:08.401Z,6.33
2023-04-14T23:11:34.974Z,7.13
2023-04-14T23:14:01.569Z,6.80
2023-04-14T23:16:28.384Z,6.30
2023-04-14T23:18:54.930Z,6.47
2023-04-14T23:21:24.922Z,6.57
2023-04-14T23:23:52.435Z,7.30
2023-04-14T23:26:21.179Z,6.67
2023-04-14T23:28:47.792Z,7.27
2023-04-14T23:31:14.423Z,7.17
2023-04-14T23:33:41.107Z,7.57
2023-04-14T23:36:07.920Z,6.47
2023-04-14T23:38:34.680Z,6.87
2023-04-14T23:41:01.495Z,7.27
2023-04-14T23:43:29.084Z,8.07
2023-04-14T23:45:55.979Z,7.40
2023-04-14T23:48:22.532Z,7.73
2023-04-14T23:51:00.612Z,7.37
2023-04-14T23:53:31.916Z,7.60
2023-04-14T23:55:58.758Z,7.60
2023-04-14T23:58:27.008Z,7.60
